Aérodrome :
LOGIN :

S'inscrire | Disclaimer

   EN    FR    IT 

 










Légende :    VFR   VFR Marginal   IFR   IFR Intensif   IFR Très Intensif
Visi : 
Plafond : 
>= 8 km
>= 3000ft
5 à 8 km
1000 à 3000 ft
1500m à 5 km
500 à 1000 ft
800 à 1500m
200 à 500 ft
< 800m
< 200 ft
Symboles :   Orages  Brouillard  Fortes neiges  Fortes précipitations  Vent > 20 kt
SIGMETs :   Divers  Orages  Givrage  Turbulence  Onde Orograph.  Cendres Volcan.






- Altitude de l'aérodrome : 465 ft
- Code IATA : LEJ


EDDP - Leipzig Halle

DERNIER METAR :
  • 221250Z 16005KT 9999 BKN010 07/05 Q1009 TEMPO BKN008

METARs EXPIRÉS :
  • 221220Z 15006KT 9999 SCT011 07/05 Q1009 NOSIG
  • 221150Z 18007KT 9999 SCT011 07/04 Q1010 NOSIG
  • 221120Z 14006KT 9999 FEW011 07/05 Q1010 NOSIG
  • 221050Z 15007KT 9999 FEW008 07/05 Q1010 NOSIG
  • 221020Z 13007KT 9999 SCT008 06/05 Q1010 TEMPO BKN010

TAF AMD TAF EDDP
Valide du 22 à 12h jusqu'au 23 à 12h UTC


221242Z 2212/2312 14006KT 7000 SCT013
TEMPO 2212/2218 BKN008
BECMG 2220/2222 08009KT
PROB30
TEMPO 2221/2308 0700 FG BKN001
TEMPO 2304/2311 3000 BR BKN012



MET'MAP, la Météo Aéronautique d'un coup d'oeil ! - Copyright ORBIFLY Décembre 2007 - Disclaimer

ORBIFLY MET'MAP TEAM :

Programmation & Développement : Alexandra Zaïnal
Conception & Développement : Baudouin d'Aumeries
Co-Programmation & Développement : Marc-Olivier Méhu
Soutien technique & logistique : Manuel Goepfert

Contact : metmap@orbifly.com




SOURCES & CREDITS :

   NOAA